createdAt,value
2023-03-11T00:00:06.738Z,8.2
2023-03-11T00:06:00.520Z,8.2
2023-03-11T00:16:59.232Z,8.2
2023-03-11T00:22:52.409Z,8.1
2023-03-11T00:28:28.856Z,8.1
2023-03-11T00:33:51.029Z,8.1
2023-03-11T00:39:28.896Z,8.1
2023-03-11T00:45:05.682Z,8.1
2023-03-11T00:50:26.977Z,8.1
2023-03-11T00:56:04.736Z,8
2023-03-11T01:01:26.142Z,8
2023-03-11T01:12:17.473Z,7.9
2023-03-11T01:18:10.895Z,7.9
2023-03-11T01:23:47.947Z,7.9
2023-03-11T01:29:24.486Z,7.8
2023-03-11T01:35:18.317Z,7.8
2023-03-11T01:41:11.163Z,7.7
2023-03-11T01:46:33.763Z,7.7
2023-03-11T01:52:10.826Z,7.6
2023-03-11T01:58:03.149Z,7.6
2023-03-11T02:03:56.228Z,7.6
2023-03-11T02:09:49.595Z,7.5
2023-03-11T02:21:04.870Z,7.4
2023-03-11T02:26:42.599Z,7.4
2023-03-11T02:32:37.608Z,7.4
2023-03-11T02:38:00.370Z,7.4
2023-03-11T02:43:52.437Z,7.4
2023-03-11T02:49:44.551Z,7.4
2023-03-11T02:55:37.522Z,7.4
2023-03-11T03:01:14.495Z,7.4
2023-03-11T03:12:29.174Z,7.4
2023-03-11T03:18:22.798Z,7.4
2023-03-11T03:23:44.153Z,7.4
2023-03-11T03:35:00.190Z,7.4
2023-03-11T03:40:54.154Z,7.4
2023-03-11T03:46:47.053Z,7.4
2023-03-11T03:52:23.731Z,7.4
2023-03-11T03:58:16.811Z,7.4
2023-03-11T04:04:10.376Z,7.4
2023-03-11T04:09:47.521Z,7.5
2023-03-11T04:15:23.618Z,7.5
2023-03-11T04:21:15.852Z,7.5
2023-03-11T04:26:52.959Z,7.6
2023-03-11T04:32:46.004Z,7.6
2023-03-11T04:38:23.496Z,7.6
2023-03-11T04:44:00.910Z,7.7
2023-03-11T04:49:53.663Z,7.8
2023-03-11T04:55:45.623Z,7.8
2023-03-11T05:01:38.782Z,7.9
2023-03-11T05:07:33.119Z,7.9
2023-03-11T05:13:11.397Z,7.9
2023-03-11T05:18:48.492Z,8
2023-03-11T05:24:43.495Z,8.1
2023-03-11T05:30:36.862Z,8.1
2023-03-11T05:36:29.963Z,8.3
2023-03-11T05:41:51.499Z,8.4
2023-03-11T05:47:29.179Z,8.5
2023-03-11T05:53:08.041Z,8.8
2023-03-11T05:59:01.077Z,9
2023-03-11T06:04:38.668Z,9.3
2023-03-11T06:10:16.799Z,9.6
2023-03-11T06:15:39.364Z,9.8
2023-03-11T06:21:17.639Z,9.9
2023-03-11T06:26:55.029Z,9.9
2023-03-11T06:32:32.741Z,10
2023-03-11T06:38:25.412Z,10.1
2023-03-11T06:44:01.693Z,10.1
2023-03-11T06:49:54.648Z,10.2
2023-03-11T06:55:50.126Z,10.2
2023-03-11T07:01:26.776Z,10.2
2023-03-11T07:07:04.206Z,10.3
2023-03-11T07:13:01.298Z,10.8
2023-03-11T07:18:54.831Z,11.6
2023-03-11T07:24:48.052Z,12.1
2023-03-11T07:30:41.225Z,12.5
2023-03-11T07:36:36.582Z,13.4
2023-03-11T07:42:29.731Z,15.5
2023-03-11T07:48:08.026Z,19.9
2023-03-11T07:54:01.122Z,22.8
2023-03-11T07:59:56.871Z,23.1
2023-03-11T08:05:35.169Z,18.3
2023-03-11T08:11:27.924Z,41.9
2023-03-11T08:17:05.093Z,41.6
2023-03-11T08:23:13.257Z,50.2
2023-03-11T08:29:08.047Z,51
2023-03-11T08:34:45.773Z,50.9
2023-03-11T08:40:24.683Z,51.4
2023-03-11T08:46:18.178Z,52.8
2023-03-11T08:52:05.161Z,53.8
2023-03-11T08:57:58.263Z,54.8
2023-03-11T09:03:53.556Z,55.8
2023-03-11T09:09:47.997Z,56.5
2023-03-11T09:15:40.318Z,57.3
2023-03-11T09:21:17.545Z,57.8
2023-03-11T09:26:38.602Z,58.3
2023-03-11T09:37:56.994Z,56.6
2023-03-11T09:43:43.928Z,56.1
2023-03-11T09:49:05.689Z,55
2023-03-11T09:54:43.008Z,54.4
2023-03-11T10:00:04.549Z,57.2
2023-03-11T10:05:42.741Z,56.5
2023-03-11T10:11:35.381Z,55.8
2023-03-11T10:17:27.914Z,55.3
2023-03-11T10:23:04.983Z,54.9
2023-03-11T10:28:42.378Z,54.7
2023-03-11T10:34:36.067Z,53.7
2023-03-11T10:40:40.776Z,52.2
2023-03-11T10:46:04.637Z,52.1
2023-03-11T10:51:41.149Z,49.2
2023-03-11T10:57:18.126Z,43.8
2023-03-11T11:02:41.608Z,40.4
2023-03-11T11:08:19.707Z,39.4
2023-03-11T11:19:20.432Z,36
2023-03-11T11:24:57.084Z,35.1
2023-03-11T11:30:37.324Z,35.1
2023-03-11T11:36:31.356Z,33.8
2023-03-11T11:42:08.134Z,31.1
2023-03-11T11:47:46.358Z,31.3
2023-03-11T11:53:24.413Z,32.4
2023-03-11T11:59:02.532Z,34.3
2023-03-11T12:04:56.456Z,34.6
2023-03-11T12:10:45.049Z,36.4
2023-03-11T12:16:38.704Z,36.6
2023-03-11T12:22:01.213Z,35.9
2023-03-11T12:27:22.779Z,35.7
2023-03-11T12:33:00.171Z,35.7
2023-03-11T12:38:53.826Z,35.4
2023-03-11T12:44:31.809Z,34.4
2023-03-11T12:50:10.112Z,34.4
2023-03-11T12:55:49.432Z,34.2
2023-03-11T13:01:27.773Z,34.1
2023-03-11T13:07:05.826Z,30.2
2023-03-11T13:12:43.589Z,28.9
2023-03-11T13:18:06.760Z,28.4
2023-03-11T13:23:44.248Z,28.1
2023-03-11T13:28:51.458Z,27.3
2023-03-11T13:34:31.561Z,25.9
2023-03-11T13:40:09.836Z,24.3
2023-03-11T13:45:31.382Z,23
2023-03-11T13:51:28.417Z,21.7
2023-03-11T14:02:27.247Z,19.6
2023-03-11T14:08:06.080Z,18.9
2023-03-11T14:13:42.953Z,18.3
2023-03-11T14:19:20.185Z,17.8
2023-03-11T14:24:58.594Z,17.4
2023-03-11T14:30:36.467Z,17.1
2023-03-11T14:36:30.368Z,16.8
2023-03-11T14:41:57.092Z,16.6
2023-03-11T14:47:18.702Z,16.3
2023-03-11T14:52:25.359Z,16.1
2023-03-11T14:58:03.382Z,15.7
2023-03-11T15:03:54.698Z,15.3
2023-03-11T15:09:34.683Z,14.9
2023-03-11T15:15:28.318Z,14.4
2023-03-11T15:21:33.150Z,14
2023-03-11T15:27:27.860Z,13.6
2023-03-11T15:33:06.014Z,13.2
2023-03-11T15:38:59.515Z,12.8
2023-03-11T15:44:44.374Z,12.4
2023-03-11T15:50:52.534Z,12.1
2023-03-11T15:57:02.287Z,11.7
2023-03-11T16:02:40.391Z,11.4
2023-03-11T16:09:06.838Z,11
2023-03-11T16:15:00.596Z,10.7
2023-03-11T16:21:10.306Z,10.3
2023-03-11T16:27:15.460Z,9.9
2023-03-11T16:33:19.172Z,9.6
2023-03-11T16:39:12.274Z,9.2
2023-03-11T16:44:50.391Z,8.9
2023-03-11T16:50:27.367Z,8.6
2023-03-11T16:56:05.297Z,8.3
2023-03-11T17:02:01.484Z,8.1
2023-03-11T17:07:58.816Z,7.8
2023-03-11T17:13:52.033Z,7.6
2023-03-11T17:19:36.914Z,7.3
2023-03-11T17:24:59.189Z,7.1
2023-03-11T17:30:53.894Z,6.9
2023-03-11T17:36:48.576Z,6.8
2023-03-11T17:42:41.102Z,6.6
2023-03-11T17:48:33.446Z,6.4
2023-03-11T17:54:27.550Z,6.2
2023-03-11T18:00:12.386Z,6
2023-03-11T18:11:12.954Z,5.7
2023-03-11T18:16:49.404Z,5.6
2023-03-11T18:22:45.773Z,5.4
2023-03-11T18:28:24.265Z,5.3
2023-03-11T18:34:17.325Z,5.2
2023-03-11T18:40:11.597Z,5.1
2023-03-11T18:45:49.961Z,4.9
2023-03-11T18:51:41.844Z,4.8
2023-03-11T18:57:19.374Z,4.7
2023-03-11T19:02:41.768Z,4.6
2023-03-11T19:08:19.095Z,4.5
2023-03-11T19:14:24.284Z,4.4
2023-03-11T19:20:10.102Z,4.4
2023-03-11T19:26:02.390Z,4.3
2023-03-11T19:32:04.801Z,4.2
2023-03-11T19:37:58.362Z,4.1
2023-03-11T19:43:51.213Z,4.1
2023-03-11T19:49:44.314Z,4
2023-03-11T19:55:15.973Z,3.9
2023-03-11T20:00:53.323Z,3.9
2023-03-11T20:06:31.617Z,3.8
2023-03-11T20:11:52.675Z,3.8
2023-03-11T20:17:34.117Z,3.7
2023-03-11T20:22:57.218Z,3.6
2023-03-11T20:28:52.464Z,3.6
2023-03-11T20:34:46.117Z,3.6
2023-03-11T20:40:24.172Z,3.5
2023-03-11T20:45:47.013Z,3.4
2023-03-11T20:51:09.710Z,3.4
2023-03-11T20:57:02.493Z,3.4
2023-03-11T21:02:57.615Z,3.4
2023-03-11T21:08:51.731Z,3.3
2023-03-11T21:14:33.416Z,3.3
2023-03-11T21:20:12.874Z,3.1
2023-03-11T21:25:36.076Z,3.1
2023-03-11T21:31:29.985Z,3.1
2023-03-11T21:37:10.553Z,2.9
2023-03-11T21:43:04.593Z,2.9
2023-03-11T21:49:03.510Z,2.8
2023-03-11T21:54:58.251Z,2.7
2023-03-11T22:00:36.566Z,2.6
2023-03-11T22:06:16.406Z,2.6
2023-03-11T22:11:55.144Z,2.5
2023-03-11T22:17:49.047Z,2.4
2023-03-11T22:23:45.536Z,2.3
2023-03-11T22:29:40.238Z,2.3
2023-03-11T22:41:09.446Z,2.1
2023-03-11T22:46:46.720Z,2.1
2023-03-11T22:52:38.920Z,2
2023-03-11T22:58:15.573Z,1.9
2023-03-11T23:04:08.962Z,1.8
2023-03-11T23:09:45.896Z,1.8
2023-03-11T23:15:55.080Z,1.6
2023-03-11T23:21:47.769Z,1.6
2023-03-11T23:27:40.203Z,1.4
2023-03-11T23:33:33.313Z,1.4
2023-03-11T23:39:26.204Z,1.3
2023-03-11T23:45:32.139Z,1.2
2023-03-11T23:51:09.745Z,1.1
2023-03-11T23:57:02.167Z,1.1
